Flight Track Log - Related Links

Times and Time Zones

All times are in EDT time to prevent confusion due to time zone crossing. See the EJA929 flight status page for this flight to view local times or setup timezone preferences in your user account.

Time Position Orientation Groundspeed Altitude Reporting Facility
EDT Latitude Longitude Course Direction KTS MPH feet Rate Location/Type
Sun 09:20:56 AM 44.8667 -93.1833 87° East 190 219 2,100  Level Minneapolis TRACON
Sun 09:21:32 AM 44.8686 -93.1367 87° East 221 254 2,900 2,041 Climbing Minneapolis Center
Sun 09:22:33 AM 44.8550 -93.0317 100° East 272 313 5,400 2,656 Climbing Minneapolis Center
Sun 09:23:34 AM 44.8183 -92.9303 117° Southeast 288 331 8,300 3,689 Climbing Minneapolis Center
Sun 09:24:35 AM 44.7692 -92.7944 117° Southeast 321 369 12,900 3,098 Climbing Minneapolis Center
Sun 09:25:36 AM 44.7219 -92.6639 117° Southeast 381 438 14,600 1,854 Climbing Minneapolis Center
Sun 09:26:38 AM 44.6739 -92.5147 114° Southeast 420 483 16,700 2,195 Climbing Minneapolis Center
Sun 09:27:39 AM 44.6614 -92.3461 96° East 431 496 19,100 1,967 Climbing Minneapolis Center
Sun 09:28:40 AM 44.6511 -92.1783 95° East 432 497 20,700 1,525 Climbing Minneapolis Center
Sun 09:29:41 AM 44.6414 -92.0125 95° East 430 495 22,200 1,475 Climbing Minneapolis Center
Sun 09:30:42 AM 44.6306 -91.8444 95° East 432 497 23,700 1,475 Climbing Minneapolis Center
Sun 09:31:43 AM 44.6192 -91.6758 95° East 435 501 25,200 1,475 Climbing Minneapolis Center
Sun 09:32:44 AM 44.6075 -91.5067 95° East 437 503 26,700 1,475 Climbing Minneapolis Center
Sun 09:33:45 AM 44.5947 -91.3358 96° East 440 506 28,200 1,475 Climbing Minneapolis Center
Sun 09:34:46 AM 44.5828 -91.1619 95° East 447 514 29,700 1,574 Climbing Minneapolis Center
Sun 09:35:47 AM 44.5675 -90.9531 96° East 450 518 31,400 1,525 Climbing Minneapolis Center
Sun 09:36:48 AM 44.5544 -90.7886 96° East 455 524 32,800 1,426 Climbing Minneapolis Center
Sun 09:37:49 AM 44.5414 -90.6111 96° East 457 526 34,300 1,463 Climbing Minneapolis Center
Sun 09:38:51 AM 44.5258 -90.4289 97° East 467 537 35,800 1,463 Climbing Minneapolis Center
Sun 09:39:52 AM 44.5114 -90.2483 96° East 467 537 37,300 1,475 Climbing Minneapolis Center
Sun 09:40:53 AM 44.4967 -90.0644 96° East 473 544 38,800 1,623 Climbing Minneapolis Center
Sun 09:41:54 AM 44.4786 -89.8497 97° East 474 545 40,600 1,082 Climbing Minneapolis Center
Sun 09:42:55 AM 44.4619 -89.6656 97° East 477 549 41,000 198 Climbing Minneapolis Center
Sun 09:43:55 AM 44.4458 -89.4733 97° East 491 565 41,000  Level Minneapolis Center
Sun 09:44:56 AM 44.4272 -89.2778 98° East 502 578 41,000  Level Minneapolis Center
Sun 09:45:57 AM 44.4089 -89.0747 97° East 515 593 41,000  Level Minneapolis Center
Sun 09:46:58 AM 44.3897 -88.8719 97° East 521 600 41,000  Level Minneapolis Center
Sun 09:47:59 AM 44.3711 -88.6664 97° East 527 606 41,000  Level Minneapolis Center
Sun 09:49:00 AM 44.3514 -88.4614 98° East 530 610 41,000  Level Minneapolis Center
Sun 09:50:01 AM 44.3319 -88.2547 97° East 533 613 41,000  Level Minneapolis Center
Sun 09:51:02 AM 44.3114 -88.0519 98° East 527 606 41,000  Level Minneapolis Center
Sun 09:52:03 AM 44.2903 -87.8472 98° East 528 608 41,000  Level Minneapolis Center
Sun 09:53:04 AM 44.2683 -87.6453 99° East 525 604 41,000  Level Minneapolis Center
Sun 09:54:05 AM 44.2464 -87.4436 99° East 525 604 41,000  Level Minneapolis Center
Sun 09:55:06 AM 44.2247 -87.2431 99° East 523 602 41,000 -49 Level Minneapolis Center
Sun 09:56:07 AM 44.2008 -87.0228 99° East 518 596 40,900  Descending Minneapolis Center
Sun 09:57:08 AM 44.1792 -86.8244 99° East 520 598 41,000 50 Climbing Minneapolis Center
Sun 09:58:08 AM 44.1564 -86.6275 99° East 519 597 41,000  Level Minneapolis Center
Sun 09:59:09 AM 44.1342 -86.4328 99° East 515 593 41,000  Level Minneapolis Center
Sun 10:00:10 AM 44.1117 -86.2386 99° East 514 592 41,000  Level Minneapolis Center
Sun 10:01:11 AM 44.0858 -86.0231 99° East 518 596 41,000  Level Minneapolis Center
Sun 10:02:12 AM 44.0631 -85.8275 99° East 514 592 41,000  Level Minneapolis Center
Sun 10:03:13 AM 44.0394 -85.6300 99° East 516 594 41,000  Level Minneapolis Center
Sun 10:04:14 AM 44.0156 -85.4344 100° East 515 593 41,000  Level Minneapolis Center
Sun 10:05:15 AM 43.9908 -85.2375 100° East 516 594 41,000  Level Minneapolis Center
Sun 10:06:16 AM 43.9661 -85.0403 100° East 517 595 41,000  Level Minneapolis Center
Sun 10:07:17 AM 43.9411 -84.8464 100° East 514 592 41,000  Level Minneapolis Center
Sun 10:08:18 AM 43.9156 -84.6544 100° East 508 585 41,000  Level Minneapolis Center
Sun 10:09:19 AM 43.8894 -84.4639 101° East 506 582 41,000  Level Minneapolis Center
Sun 10:10:20 AM 43.8647 -84.2725 100° East 506 582 41,000  Level Minneapolis Center
Sun 10:11:21 AM 43.8389 -84.0797 100° East 508 585 41,000  Level Minneapolis Center
Sun 10:12:22 AM 43.8119 -83.8886 101° East 507 583 41,000  Level Minneapolis Center
Sun 10:13:23 AM 43.7858 -83.6978 101° East 507 583 41,000  Level Minneapolis Center
Sun 10:14:24 AM 43.7581 -83.5086 101° East 505 581 41,000  Level Minneapolis Center
Sun 10:15:25 AM 43.7250 -83.2800 101° East 505 581 41,000  Level Minneapolis Center
Sun 10:16:26 AM 43.6981 -83.0914 101° East 503 579 41,000  Level Minneapolis Center
Sun 10:17:04 AM 43.6667 -82.9833 112° Southeast 500 575 41,000  Level Toronto Center
Sun 10:18:04 AM 43.6333 -82.7667 102° East 500 575 41,000  Level Toronto Center
Sun 10:19:04 AM 43.6167 -82.5833 97° East 510 587 41,000  Level Toronto Center
Sun 10:20:04 AM 43.5833 -82.4000 104° East 510 587 41,000  Level Toronto Center
Sun 10:21:04 AM 43.5500 -82.2167 104° East 510 587 41,000  Level Toronto Center
Sun 10:22:04 AM 43.5167 -82.0167 103° East 510 587 41,000  Level Toronto Center
Sun 10:23:04 AM 43.5000 -81.8167 96° East 510 587 41,000  Level Toronto Center
Sun 10:24:04 AM 43.4667 -81.6333 104° East 510 587 41,000  Level Toronto Center
Sun 10:25:04 AM 43.4333 -81.4500 104° East 510 587 41,000  Level Toronto Center
Sun 10:26:04 AM 43.4000 -81.2333 102° East 510 587 41,000  Level Toronto Center
Sun 10:27:04 AM 43.3667 -81.0500 104° East 510 587 41,000  Level Toronto Center
Sun 10:28:04 AM 43.3333 -80.8667 104° East 510 587 41,000  Level Toronto Center
Sun 10:29:04 AM 43.3167 -80.6833 97° East 510 587 41,000  Level Toronto Center
Sun 10:30:04 AM 43.2833 -80.5000 104° East 510 587 41,000  Level Toronto Center
Sun 10:31:04 AM 43.2500 -80.3167 104° East 510 587 41,000  Level Toronto Center
Sun 10:32:04 AM 43.2167 -80.1167 103° East 510 587 41,000  Level Toronto Center
Sun 10:33:04 AM 43.1833 -79.9333 104° East 510 587 41,000  Level Toronto Center
Sun 10:34:04 AM 43.1500 -79.7500 104° East 500 575 41,000  Level Toronto Center
Sun 10:35:04 AM 43.1167 -79.5500 103° East 500 575 41,000  Level Toronto Center
Sun 10:36:04 AM 43.0833 -79.3833 105° East 510 587 41,000  Level Toronto Center
Sun 10:37:04 AM 43.0500 -79.1833 103° East 510 587 41,000  Level Toronto Center
Sun 10:38:04 AM 43.0167 -79.0000 104° East 500 575 41,000  Level Toronto Center
Sun 10:39:04 AM 42.9833 -78.8167 104° East 500 575 41,000 -500 Level Toronto Center
Sun 10:40:04 AM 42.9500 -78.6333 104° East 500 575 40,000 -1,400 Descending Toronto Center
Sun 10:41:04 AM 42.9000 -78.4500 110° East 500 575 38,200 -1,900 Descending Toronto Center
Sun 10:42:04 AM 42.8667 -78.2667 104° East 510 587 36,200 -2,050 Descending Toronto Center
Sun 10:43:04 AM 42.8333 -78.0667 103° East 510 587 34,100 -2,000 Descending Toronto Center
Sun 10:44:04 AM 42.7833 -77.8833 110° East 520 598 32,200 -2,000 Descending Toronto Center
Sun 10:45:04 AM 42.7500 -77.6833 103° East 530 610 30,100 -2,050 Descending Toronto Center
Sun 10:46:04 AM 42.7167 -77.4833 103° East 540 621 28,100 -1,550 Descending Toronto Center
Sun 10:47:04 AM 42.6667 -77.3000 110° East 530 610 27,000 -673 Descending Toronto Center
Sun 10:47:42 AM 42.6611 -77.2042 94° East 504 580 27,000  Level Boston Center
Sun 10:48:42 AM 42.6228 -77.0175 106° East 504 580 27,000  Level Boston Center
Sun 10:49:42 AM 42.5844 -76.8314 106° East 509 586 27,000  Level Boston Center
Sun 10:50:42 AM 42.5456 -76.6453 106° East 509 586 27,000  Level Boston Center
Sun 10:51:42 AM 42.5083 -76.4625 105° East 504 580 27,000 -200 Level Boston Center
Sun 10:52:42 AM 42.4689 -76.2769 106° East 504 580 26,600 -900 Descending Boston Center
Sun 10:53:42 AM 42.4328 -76.1086 106° East 509 586 25,200 -1,450 Descending Boston Center
Sun 10:54:42 AM 42.3947 -75.9264 106° East 504 580 23,700 -2,000 Descending Boston Center
Sun 10:55:42 AM 42.3564 -75.7500 106° East 496 571 21,200 -2,750 Descending Boston Center
Sun 10:56:42 AM 42.3136 -75.5597 107° East 486 559 18,200 -2,550 Descending Boston Center
Sun 10:57:42 AM 42.2822 -75.4119 106° East 473 544 16,100 -2,150 Descending Boston Center
Sun 10:58:42 AM 42.2467 -75.2561 107° East 460 529 13,900 -2,400 Descending Boston Center
Sun 10:59:42 AM 42.2111 -75.0919 106° East 434 499 11,300 -1,450 Descending Boston Center
Sun 11:00:42 AM 42.1725 -74.9503 110° East 409 471 11,000 -150 Descending Boston Center
Sun 11:01:42 AM 42.1169 -74.8164 119° Southeast 402 463 11,000  Level Boston Center
Sun 11:02:42 AM 42.0633 -74.6858 119° Southeast 396 456 11,000 -321 Level Boston Center
Sun 11:04:30 AM 41.9833 -74.4833 118° Southeast 306 352 10,100 -857 Descending New York TRACON
Sun 11:05:30 AM 41.9333 -74.3833 124° Southeast 282 325 8,600 -1,750 Descending New York TRACON
Sun 11:06:30 AM 41.8833 -74.3000 129° Southeast 299 344 6,600 -1,800 Descending New York TRACON
Sun 11:07:30 AM 41.8333 -74.2167 129° Southeast 279 321 5,000 -1,250 Descending New York TRACON
Sun 11:08:30 AM 41.7833 -74.1500 135° Southeast 268 308 4,100 -600 Descending New York TRACON
Sun 11:09:30 AM 41.7333 -74.0667 129° Southeast 274 315 3,800 -800 Descending New York TRACON
Sun 11:10:30 AM 41.7000 -74.0000 124° Southeast 257 296 2,500 -850 Descending New York TRACON
Sun 11:11:30 AM 41.6500 -73.9167 129° Southeast 242 278 2,100 -200 Descending New York TRACON
Sun 11:12:30 AM 41.6667 -73.8500 71° East 206 237 2,100 50 Level New York TRACON
Sun 11:13:30 AM 41.6667 -73.8167 90° East 160 184 2,200 -600 Climbing New York TRACON
Sun 11:14:30 AM 41.6500 -73.8500 236° Southwest 129 148 900 -1,300 Descending New York TRACON
Sun 11:16:00 AM 41.6167 -73.8833 135° Southeast  Level FlightAware Approximate
Sun 11:23:00 AM 41.6266 -73.8842 135° Southeast  Level Estimated

Login

Don't have an account? Register now (free) for customized features, flight alerts, and more!